sensor_id;sensor_type;location;lat;lon;timestamp;temperature;humidity
52743;DHT22;55583;53.012;6.556;2023-05-21T00:01:40;14.80;98.80
52743;DHT22;55583;53.012;6.556;2023-05-21T00:04:06;14.80;99.00
52743;DHT22;55583;53.012;6.556;2023-05-21T00:06:35;14.70;99.50
52743;DHT22;55583;53.012;6.556;2023-05-21T00:09:02;14.70;99.90
52743;DHT22;55583;53.012;6.556;2023-05-21T00:11:28;14.70;99.80
52743;DHT22;55583;53.012;6.556;2023-05-21T00:13:54;14.70;99.90
52743;DHT22;55583;53.012;6.556;2023-05-21T00:16:20;14.70;99.90
52743;DHT22;55583;53.012;6.556;2023-05-21T00:18:46;14.70;99.90
52743;DHT22;55583;53.012;6.556;2023-05-21T00:21:14;14.70;99.90
52743;DHT22;55583;53.012;6.556;2023-05-21T00:23:42;14.70;99.90
52743;DHT22;55583;53.012;6.556;2023-05-21T00:26:08;14.60;99.90
52743;DHT22;55583;53.012;6.556;2023-05-21T00:28:34;14.70;99.90
52743;DHT22;55583;53.012;6.556;2023-05-21T00:31:00;14.70;99.90
52743;DHT22;55583;53.012;6.556;2023-05-21T00:33:25;14.70;99.90
52743;DHT22;55583;53.012;6.556;2023-05-21T00:35:54;14.60;99.90
52743;DHT22;55583;53.012;6.556;2023-05-21T00:38:21;14.60;99.90
52743;DHT22;55583;53.012;6.556;2023-05-21T00:40:47;14.60;99.90
52743;DHT22;55583;53.012;6.556;2023-05-21T00:43:13;14.60;99.90
52743;DHT22;55583;53.012;6.556;2023-05-21T00:45:42;14.60;99.90
52743;DHT22;55583;53.012;6.556;2023-05-21T00:48:09;14.60;99.90
52743;DHT22;55583;53.012;6.556;2023-05-21T00:50:35;14.60;99.90
52743;DHT22;55583;53.012;6.556;2023-05-21T00:53:05;14.60;99.90
52743;DHT22;55583;53.012;6.556;2023-05-21T00:55:35;14.60;99.90
52743;DHT22;55583;53.012;6.556;2023-05-21T00:58:01;14.50;99.90
52743;DHT22;55583;53.012;6.556;2023-05-21T01:00:32;14.60;99.90
52743;DHT22;55583;53.012;6.556;2023-05-21T01:03:02;14.60;99.90
52743;DHT22;55583;53.012;6.556;2023-05-21T01:05:28;14.60;99.90
52743;DHT22;55583;53.012;6.556;2023-05-21T01:07:55;14.50;99.90
52743;DHT22;55583;53.012;6.556;2023-05-21T01:10:22;14.50;99.90
52743;DHT22;55583;53.012;6.556;2023-05-21T01:12:49;14.50;99.90
52743;DHT22;55583;53.012;6.556;2023-05-21T01:15:15;14.70;99.90
52743;DHT22;55583;53.012;6.556;2023-05-21T01:17:41;14.80;99.90
52743;DHT22;55583;53.012;6.556;2023-05-21T01:20:10;14.50;99.90
52743;DHT22;55583;53.012;6.556;2023-05-21T01:22:46;14.50;99.90
52743;DHT22;55583;53.012;6.556;2023-05-21T01:25:13;14.50;99.90
52743;DHT22;55583;53.012;6.556;2023-05-21T01:27:39;14.50;99.90
52743;DHT22;55583;53.012;6.556;2023-05-21T01:30:05;14.50;99.90
52743;DHT22;55583;53.012;6.556;2023-05-21T01:32:33;14.50;99.90
52743;DHT22;55583;53.012;6.556;2023-05-21T01:35:15;14.50;99.90
52743;DHT22;55583;53.012;6.556;2023-05-21T01:38:07;14.50;99.90
52743;DHT22;55583;53.012;6.556;2023-05-21T01:43:05;14.40;99.90
52743;DHT22;55583;53.012;6.556;2023-05-21T01:45:32;14.40;99.90
52743;DHT22;55583;53.012;6.556;2023-05-21T01:48:00;14.40;99.90
52743;DHT22;55583;53.012;6.556;2023-05-21T01:50:27;14.30;99.90
52743;DHT22;55583;53.012;6.556;2023-05-21T01:52:55;14.30;99.90
52743;DHT22;55583;53.012;6.556;2023-05-21T01:55:25;14.30;99.90
52743;DHT22;55583;53.012;6.556;2023-05-21T01:57:54;14.30;99.90
52743;DHT22;55583;53.012;6.556;2023-05-21T02:00:20;14.20;99.90
52743;DHT22;55583;53.012;6.556;2023-05-21T02:02:46;14.20;99.90
52743;DHT22;55583;53.012;6.556;2023-05-21T02:05:12;14.20;99.90
52743;DHT22;55583;53.012;6.556;2023-05-21T02:07:38;14.20;99.90
52743;DHT22;55583;53.012;6.556;2023-05-21T02:10:05;14.20;99.90
52743;DHT22;55583;53.012;6.556;2023-05-21T02:12:32;14.20;99.90
52743;DHT22;55583;53.012;6.556;2023-05-21T02:14:57;14.20;99.90
52743;DHT22;55583;53.012;6.556;2023-05-21T02:17:24;14.20;99.90
52743;DHT22;55583;53.012;6.556;2023-05-21T02:19:50;14.20;99.90
52743;DHT22;55583;53.012;6.556;2023-05-21T02:22:16;14.20;99.90
52743;DHT22;55583;53.012;6.556;2023-05-21T02:24:42;14.40;99.90
52743;DHT22;55583;53.012;6.556;2023-05-21T02:27:07;14.20;99.90
52743;DHT22;55583;53.012;6.556;2023-05-21T02:29:38;14.10;99.90
52743;DHT22;55583;53.012;6.556;2023-05-21T02:32:06;14.20;99.90
52743;DHT22;55583;53.012;6.556;2023-05-21T02:34:32;14.20;99.90
52743;DHT22;55583;53.012;6.556;2023-05-21T02:37:02;14.20;99.90
52743;DHT22;55583;53.012;6.556;2023-05-21T02:39:30;14.20;99.90
52743;DHT22;55583;53.012;6.556;2023-05-21T02:41:56;14.40;99.90
52743;DHT22;55583;53.012;6.556;2023-05-21T02:44:22;14.10;99.90
52743;DHT22;55583;53.012;6.556;2023-05-21T02:46:48;14.10;99.90
52743;DHT22;55583;53.012;6.556;2023-05-21T02:49:13;14.60;99.90
52743;DHT22;55583;53.012;6.556;2023-05-21T02:51:39;14.10;99.90
52743;DHT22;55583;53.012;6.556;2023-05-21T02:54:05;14.10;99.90
52743;DHT22;55583;53.012;6.556;2023-05-21T02:56:31;14.00;99.90
52743;DHT22;55583;53.012;6.556;2023-05-21T02:58:56;14.10;99.90
52743;DHT22;55583;53.012;6.556;2023-05-21T03:01:25;14.10;99.90
52743;DHT22;55583;53.012;6.556;2023-05-21T03:03:51;14.10;99.90
52743;DHT22;55583;53.012;6.556;2023-05-21T03:06:16;14.20;99.90
52743;DHT22;55583;53.012;6.556;2023-05-21T03:08:42;14.10;99.90
52743;DHT22;55583;53.012;6.556;2023-05-21T03:11:08;14.10;99.90
52743;DHT22;55583;53.012;6.556;2023-05-21T03:13:34;14.20;99.90
52743;DHT22;55583;53.012;6.556;2023-05-21T03:15:59;14.10;99.90
52743;DHT22;55583;53.012;6.556;2023-05-21T03:18:25;14.10;99.90
52743;DHT22;55583;53.012;6.556;2023-05-21T03:20:51;14.10;99.90
52743;DHT22;55583;53.012;6.556;2023-05-21T03:23:16;14.00;99.90
52743;DHT22;55583;53.012;6.556;2023-05-21T03:25:42;14.40;99.90
52743;DHT22;55583;53.012;6.556;2023-05-21T03:28:08;14.10;99.90
52743;DHT22;55583;53.012;6.556;2023-05-21T03:30:35;14.00;99.90
52743;DHT22;55583;53.012;6.556;2023-05-21T03:33:01;14.10;99.90
52743;DHT22;55583;53.012;6.556;2023-05-21T03:35:27;14.10;99.90
52743;DHT22;55583;53.012;6.556;2023-05-21T03:37:53;14.00;99.90
52743;DHT22;55583;53.012;6.556;2023-05-21T03:40:19;14.00;99.90
52743;DHT22;55583;53.012;6.556;2023-05-21T03:42:46;14.00;99.90
52743;DHT22;55583;53.012;6.556;2023-05-21T03:45:12;14.60;99.90
52743;DHT22;55583;53.012;6.556;2023-05-21T03:47:37;14.00;99.90
52743;DHT22;55583;53.012;6.556;2023-05-21T03:50:03;14.00;99.90
52743;DHT22;55583;53.012;6.556;2023-05-21T03:52:30;14.00;99.90
52743;DHT22;55583;53.012;6.556;2023-05-21T03:54:55;14.00;99.90
52743;DHT22;55583;53.012;6.556;2023-05-21T03:57:21;14.20;99.90
52743;DHT22;55583;53.012;6.556;2023-05-21T03:59:47;13.90;99.90
52743;DHT22;55583;53.012;6.556;2023-05-21T04:02:12;13.90;99.90
52743;DHT22;55583;53.012;6.556;2023-05-21T04:04:38;13.90;99.90
52743;DHT22;55583;53.012;6.556;2023-05-21T04:07:03;13.90;99.90
52743;DHT22;55583;53.012;6.556;2023-05-21T04:09:29;13.90;99.90
52743;DHT22;55583;53.012;6.556;2023-05-21T04:11:55;13.90;99.90
52743;DHT22;55583;53.012;6.556;2023-05-21T04:14:24;13.90;99.90
52743;DHT22;55583;53.012;6.556;2023-05-21T04:16:49;14.40;99.90
52743;DHT22;55583;53.012;6.556;2023-05-21T04:19:15;13.70;99.90
52743;DHT22;55583;53.012;6.556;2023-05-21T04:21:40;13.90;99.90
52743;DHT22;55583;53.012;6.556;2023-05-21T04:24:12;13.90;99.90
52743;DHT22;55583;53.012;6.556;2023-05-21T04:26:37;14.00;99.90
52743;DHT22;55583;53.012;6.556;2023-05-21T04:29:07;13.90;99.90
52743;DHT22;55583;53.012;6.556;2023-05-21T04:31:32;13.90;99.90
52743;DHT22;55583;53.012;6.556;2023-05-21T04:33:58;13.90;99.90
52743;DHT22;55583;53.012;6.556;2023-05-21T04:36:24;13.90;99.90
52743;DHT22;55583;53.012;6.556;2023-05-21T04:38:49;13.90;99.90
52743;DHT22;55583;53.012;6.556;2023-05-21T04:41:15;14.00;99.90
52743;DHT22;55583;53.012;6.556;2023-05-21T04:43:43;14.00;99.90
52743;DHT22;55583;53.012;6.556;2023-05-21T04:46:09;14.00;99.90
52743;DHT22;55583;53.012;6.556;2023-05-21T04:48:34;14.00;99.90
52743;DHT22;55583;53.012;6.556;2023-05-21T04:51:00;14.30;99.90
52743;DHT22;55583;53.012;6.556;2023-05-21T04:53:26;14.10;99.90
52743;DHT22;55583;53.012;6.556;2023-05-21T04:55:51;14.10;99.90
52743;DHT22;55583;53.012;6.556;2023-05-21T04:58:17;14.30;99.90
52743;DHT22;55583;53.012;6.556;2023-05-21T05:00:46;14.40;99.90
52743;DHT22;55583;53.012;6.556;2023-05-21T05:03:15;14.20;99.90
52743;DHT22;55583;53.012;6.556;2023-05-21T05:05:42;14.10;99.90
52743;DHT22;55583;53.012;6.556;2023-05-21T05:08:08;14.30;99.90
52743;DHT22;55583;53.012;6.556;2023-05-21T05:10:34;14.30;99.90
52743;DHT22;55583;53.012;6.556;2023-05-21T05:13:06;14.30;99.90
52743;DHT22;55583;53.012;6.556;2023-05-21T05:15:31;14.30;99.90
52743;DHT22;55583;53.012;6.556;2023-05-21T05:17:57;14.40;99.90
52743;DHT22;55583;53.012;6.556;2023-05-21T05:20:23;14.40;99.90
52743;DHT22;55583;53.012;6.556;2023-05-21T05:22:48;14.40;99.90
52743;DHT22;55583;53.012;6.556;2023-05-21T05:25:14;14.60;99.90
52743;DHT22;55583;53.012;6.556;2023-05-21T05:27:40;14.50;99.90
52743;DHT22;55583;53.012;6.556;2023-05-21T05:30:06;14.60;99.90
52743;DHT22;55583;53.012;6.556;2023-05-21T05:32:32;14.60;99.90
52743;DHT22;55583;53.012;6.556;2023-05-21T05:34:57;14.70;99.90
52743;DHT22;55583;53.012;6.556;2023-05-21T05:37:23;14.60;99.90
52743;DHT22;55583;53.012;6.556;2023-05-21T05:39:49;14.60;99.90
52743;DHT22;55583;53.012;6.556;2023-05-21T05:42:14;14.70;99.90
52743;DHT22;55583;53.012;6.556;2023-05-21T05:44:40;14.80;99.90
52743;DHT22;55583;53.012;6.556;2023-05-21T05:47:06;14.90;99.90
52743;DHT22;55583;53.012;6.556;2023-05-21T05:49:35;15.20;99.90
52743;DHT22;55583;53.012;6.556;2023-05-21T05:52:01;15.00;99.90
52743;DHT22;55583;53.012;6.556;2023-05-21T05:54:26;15.00;99.90
52743;DHT22;55583;53.012;6.556;2023-05-21T05:56:52;15.00;99.90
52743;DHT22;55583;53.012;6.556;2023-05-21T05:59:18;15.00;99.90
52743;DHT22;55583;53.012;6.556;2023-05-21T06:01:43;15.10;99.90
52743;DHT22;55583;53.012;6.556;2023-05-21T06:04:09;15.10;99.90
52743;DHT22;55583;53.012;6.556;2023-05-21T06:06:35;15.20;99.90
52743;DHT22;55583;53.012;6.556;2023-05-21T06:09:01;15.20;99.90
52743;DHT22;55583;53.012;6.556;2023-05-21T06:11:27;15.30;99.90
52743;DHT22;55583;53.012;6.556;2023-05-21T06:13:53;15.30;99.90
52743;DHT22;55583;53.012;6.556;2023-05-21T06:16:18;15.50;99.90
52743;DHT22;55583;53.012;6.556;2023-05-21T06:18:44;15.30;99.90
52743;DHT22;55583;53.012;6.556;2023-05-21T06:21:09;15.40;99.90
52743;DHT22;55583;53.012;6.556;2023-05-21T06:23:35;15.50;99.90
52743;DHT22;55583;53.012;6.556;2023-05-21T06:26:02;15.50;99.90
52743;DHT22;55583;53.012;6.556;2023-05-21T06:28:28;15.60;99.90
52743;DHT22;55583;53.012;6.556;2023-05-21T06:30:54;15.70;99.90
52743;DHT22;55583;53.012;6.556;2023-05-21T06:33:19;15.60;99.90
52743;DHT22;55583;53.012;6.556;2023-05-21T06:35:45;15.60;99.90
52743;DHT22;55583;53.012;6.556;2023-05-21T06:38:11;15.70;99.90
52743;DHT22;55583;53.012;6.556;2023-05-21T06:40:40;15.70;99.90
52743;DHT22;55583;53.012;6.556;2023-05-21T06:43:05;15.70;99.90
52743;DHT22;55583;53.012;6.556;2023-05-21T06:45:31;15.70;99.90
52743;DHT22;55583;53.012;6.556;2023-05-21T06:47:57;15.80;99.90
52743;DHT22;55583;53.012;6.556;2023-05-21T06:50:22;15.80;99.90
52743;DHT22;55583;53.012;6.556;2023-05-21T06:52:48;16.10;99.90
52743;DHT22;55583;53.012;6.556;2023-05-21T06:55:13;15.90;99.90
52743;DHT22;55583;53.012;6.556;2023-05-21T06:57:39;15.90;99.90
52743;DHT22;55583;53.012;6.556;2023-05-21T07:00:05;16.50;99.90
52743;DHT22;55583;53.012;6.556;2023-05-21T07:02:33;16.10;99.90
52743;DHT22;55583;53.012;6.556;2023-05-21T07:04:59;16.10;99.90
52743;DHT22;55583;53.012;6.556;2023-05-21T07:07:24;16.20;99.90
52743;DHT22;55583;53.012;6.556;2023-05-21T07:09:50;16.20;99.90
52743;DHT22;55583;53.012;6.556;2023-05-21T07:12:15;16.30;99.90
52743;DHT22;55583;53.012;6.556;2023-05-21T07:14:41;16.30;99.90
52743;DHT22;55583;53.012;6.556;2023-05-21T07:17:07;16.40;99.90
52743;DHT22;55583;53.012;6.556;2023-05-21T07:19:32;16.40;99.90
52743;DHT22;55583;53.012;6.556;2023-05-21T07:21:58;16.30;99.90
52743;DHT22;55583;53.012;6.556;2023-05-21T07:24:24;16.40;99.90
52743;DHT22;55583;53.012;6.556;2023-05-21T07:26:51;16.40;99.80
52743;DHT22;55583;53.012;6.556;2023-05-21T07:29:17;16.40;99.80
52743;DHT22;55583;53.012;6.556;2023-05-21T07:31:43;16.50;99.50
52743;DHT22;55583;53.012;6.556;2023-05-21T07:34:08;17.00;99.80
52743;DHT22;55583;53.012;6.556;2023-05-21T07:36:34;16.70;99.40
52743;DHT22;55583;53.012;6.556;2023-05-21T07:39:00;16.90;99.30
52743;DHT22;55583;53.012;6.556;2023-05-21T07:41:26;17.00;98.50
52743;DHT22;55583;53.012;6.556;2023-05-21T07:43:51;17.00;98.10
52743;DHT22;55583;53.012;6.556;2023-05-21T07:46:17;17.20;97.70
52743;DHT22;55583;53.012;6.556;2023-05-21T07:48:42;17.10;97.50
52743;DHT22;55583;53.012;6.556;2023-05-21T07:51:09;17.20;97.00
52743;DHT22;55583;53.012;6.556;2023-05-21T07:53:35;17.30;96.90
52743;DHT22;55583;53.012;6.556;2023-05-21T07:56:00;17.40;96.50
52743;DHT22;55583;53.012;6.556;2023-05-21T07:58:26;17.50;96.00
52743;DHT22;55583;53.012;6.556;2023-05-21T08:00:52;17.50;95.80
52743;DHT22;55583;53.012;6.556;2023-05-21T08:03:18;17.60;96.00
52743;DHT22;55583;53.012;6.556;2023-05-21T08:05:44;17.70;96.10
52743;DHT22;55583;53.012;6.556;2023-05-21T08:08:15;17.80;95.40
52743;DHT22;55583;53.012;6.556;2023-05-21T08:10:41;17.90;95.20
52743;DHT22;55583;53.012;6.556;2023-05-21T08:13:07;18.00;94.70
52743;DHT22;55583;53.012;6.556;2023-05-21T08:15:33;18.00;93.90
52743;DHT22;55583;53.012;6.556;2023-05-21T08:17:58;18.00;93.60
52743;DHT22;55583;53.012;6.556;2023-05-21T08:20:24;18.10;93.70
52743;DHT22;55583;53.012;6.556;2023-05-21T08:22:50;18.10;93.30
52743;DHT22;55583;53.012;6.556;2023-05-21T08:25:18;18.10;93.20
52743;DHT22;55583;53.012;6.556;2023-05-21T08:27:43;18.10;93.10
52743;DHT22;55583;53.012;6.556;2023-05-21T08:30:09;18.10;93.00
52743;DHT22;55583;53.012;6.556;2023-05-21T08:32:36;18.30;92.80
52743;DHT22;55583;53.012;6.556;2023-05-21T08:35:02;18.30;92.40
52743;DHT22;55583;53.012;6.556;2023-05-21T08:37:28;18.40;92.30
52743;DHT22;55583;53.012;6.556;2023-05-21T08:39:53;18.60;92.10
52743;DHT22;55583;53.012;6.556;2023-05-21T08:44:51;19.00;91.20
52743;DHT22;55583;53.012;6.556;2023-05-21T08:47:22;19.30;90.80
52743;DHT22;55583;53.012;6.556;2023-05-21T08:49:51;19.60;89.40
52743;DHT22;55583;53.012;6.556;2023-05-21T08:52:18;19.80;88.20
52743;DHT22;55583;53.012;6.556;2023-05-21T08:54:44;20.00;87.00
52743;DHT22;55583;53.012;6.556;2023-05-21T08:57:11;20.20;85.60
52743;DHT22;55583;53.012;6.556;2023-05-21T08:59:38;20.30;84.70
52743;DHT22;55583;53.012;6.556;2023-05-21T09:02:12;20.40;83.70
52743;DHT22;55583;53.012;6.556;2023-05-21T09:04:42;20.50;81.50
52743;DHT22;55583;53.012;6.556;2023-05-21T09:07:14;20.50;80.30
52743;DHT22;55583;53.012;6.556;2023-05-21T09:09:48;20.50;80.70
52743;DHT22;55583;53.012;6.556;2023-05-21T09:12:16;20.70;79.20
52743;DHT22;55583;53.012;6.556;2023-05-21T09:14:42;20.80;79.50
52743;DHT22;55583;53.012;6.556;2023-05-21T09:17:09;20.90;78.90
52743;DHT22;55583;53.012;6.556;2023-05-21T09:19:37;20.90;78.70
52743;DHT22;55583;53.012;6.556;2023-05-21T09:22:03;20.90;77.70
52743;DHT22;55583;53.012;6.556;2023-05-21T09:24:32;20.70;78.10
52743;DHT22;55583;53.012;6.556;2023-05-21T09:26:58;20.80;78.00
52743;DHT22;55583;53.012;6.556;2023-05-21T09:29:23;20.80;78.10
52743;DHT22;55583;53.012;6.556;2023-05-21T09:31:50;20.90;77.60
52743;DHT22;55583;53.012;6.556;2023-05-21T09:34:19;21.10;76.90
52743;DHT22;55583;53.012;6.556;2023-05-21T09:36:47;21.10;76.40
52743;DHT22;55583;53.012;6.556;2023-05-21T09:39:26;21.00;76.00
52743;DHT22;55583;53.012;6.556;2023-05-21T09:41:56;21.10;75.50
52743;DHT22;55583;53.012;6.556;2023-05-21T09:44:22;21.40;75.60
52743;DHT22;55583;53.012;6.556;2023-05-21T09:46:48;21.70;74.90
52743;DHT22;55583;53.012;6.556;2023-05-21T09:49:23;22.20;73.60
52743;DHT22;55583;53.012;6.556;2023-05-21T09:51:55;22.60;71.30
52743;DHT22;55583;53.012;6.556;2023-05-21T09:54:22;22.70;70.70
52743;DHT22;55583;53.012;6.556;2023-05-21T09:56:50;22.90;70.80
52743;DHT22;55583;53.012;6.556;2023-05-21T09:59:17;23.00;70.20
52743;DHT22;55583;53.012;6.556;2023-05-21T10:01:43;23.20;69.80
52743;DHT22;55583;53.012;6.556;2023-05-21T10:04:10;24.00;69.00
52743;DHT22;55583;53.012;6.556;2023-05-21T10:06:41;24.70;67.30
52743;DHT22;55583;53.012;6.556;2023-05-21T10:09:10;24.90;64.50
52743;DHT22;55583;53.012;6.556;2023-05-21T10:11:36;24.70;64.90
52743;DHT22;55583;53.012;6.556;2023-05-21T10:14:05;24.50;65.10
52743;DHT22;55583;53.012;6.556;2023-05-21T10:16:32;24.50;64.10
52743;DHT22;55583;53.012;6.556;2023-05-21T10:18:59;24.40;65.10
52743;DHT22;55583;53.012;6.556;2023-05-21T10:21:29;25.00;64.10
52743;DHT22;55583;53.012;6.556;2023-05-21T10:23:57;25.70;61.60
52743;DHT22;55583;53.012;6.556;2023-05-21T10:26:26;26.00;61.50
52743;DHT22;55583;53.012;6.556;2023-05-21T10:28:55;26.00;60.90
52743;DHT22;55583;53.012;6.556;2023-05-21T10:31:21;26.00;60.70
52743;DHT22;55583;53.012;6.556;2023-05-21T10:33:48;26.30;60.50
52743;DHT22;55583;53.012;6.556;2023-05-21T10:36:16;26.90;60.00
52743;DHT22;55583;53.012;6.556;2023-05-21T10:38:43;27.30;58.40
52743;DHT22;55583;53.012;6.556;2023-05-21T10:41:10;27.90;58.10
52743;DHT22;55583;53.012;6.556;2023-05-21T11:00:15;29.60;52.90
52743;DHT22;55583;53.012;6.556;2023-05-21T11:02:41;29.90;53.20
52743;DHT22;55583;53.012;6.556;2023-05-21T11:05:07;30.20;52.40
52743;DHT22;55583;53.012;6.556;2023-05-21T11:07:52;30.20;52.70
52743;DHT22;55583;53.012;6.556;2023-05-21T11:10:37;30.50;51.70
52743;DHT22;55583;53.012;6.556;2023-05-21T11:13:13;30.50;51.90
52743;DHT22;55583;53.012;6.556;2023-05-21T11:21:13;29.20;52.70
52743;DHT22;55583;53.012;6.556;2023-05-21T11:23:53;28.90;53.30
52743;DHT22;55583;53.012;6.556;2023-05-21T11:26:24;28.60;53.90
52743;DHT22;55583;53.012;6.556;2023-05-21T11:31:37;28.50;53.50
52743;DHT22;55583;53.012;6.556;2023-05-21T11:34:19;28.80;54.40
52743;DHT22;55583;53.012;6.556;2023-05-21T11:40:24;29.70;52.10
52743;DHT22;55583;53.012;6.556;2023-05-21T11:42:52;30.00;52.00
52743;DHT22;55583;53.012;6.556;2023-05-21T11:45:19;30.30;52.20
52743;DHT22;55583;53.012;6.556;2023-05-21T11:47:46;30.50;51.70
52743;DHT22;55583;53.012;6.556;2023-05-21T11:50:13;30.80;51.40
52743;DHT22;55583;53.012;6.556;2023-05-21T11:52:40;31.10;51.20
52743;DHT22;55583;53.012;6.556;2023-05-21T11:55:06;31.50;50.90
52743;DHT22;55583;53.012;6.556;2023-05-21T11:57:32;32.00;50.60
52743;DHT22;55583;53.012;6.556;2023-05-21T12:00:00;32.30;49.90
52743;DHT22;55583;53.012;6.556;2023-05-21T12:02:31;32.50;49.50
52743;DHT22;55583;53.012;6.556;2023-05-21T12:04:57;32.40;49.30
52743;DHT22;55583;53.012;6.556;2023-05-21T12:07:28;32.30;49.50
52743;DHT22;55583;53.012;6.556;2023-05-21T12:09:54;31.90;49.80
52743;DHT22;55583;53.012;6.556;2023-05-21T12:12:23;31.70;50.00
52743;DHT22;55583;53.012;6.556;2023-05-21T12:14:50;31.90;50.00
52743;DHT22;55583;53.012;6.556;2023-05-21T12:19:45;32.30;49.50
52743;DHT22;55583;53.012;6.556;2023-05-21T12:22:11;32.20;49.60
52743;DHT22;55583;53.012;6.556;2023-05-21T12:24:38;32.40;49.80
52743;DHT22;55583;53.012;6.556;2023-05-21T12:27:05;32.70;49.40
52743;DHT22;55583;53.012;6.556;2023-05-21T12:29:35;32.80;49.10
52743;DHT22;55583;53.012;6.556;2023-05-21T12:32:06;32.80;49.10
52743;DHT22;55583;53.012;6.556;2023-05-21T12:34:52;32.80;49.10
52743;DHT22;55583;53.012;6.556;2023-05-21T12:37:23;33.00;48.40
52743;DHT22;55583;53.012;6.556;2023-05-21T12:39:57;33.00;48.70
52743;DHT22;55583;53.012;6.556;2023-05-21T12:42:27;32.80;49.30
52743;DHT22;55583;53.012;6.556;2023-05-21T12:44:55;32.60;49.10
52743;DHT22;55583;53.012;6.556;2023-05-21T12:47:23;32.80;49.10
52743;DHT22;55583;53.012;6.556;2023-05-21T12:49:52;33.10;48.60
52743;DHT22;55583;53.012;6.556;2023-05-21T12:52:19;33.10;48.50
52743;DHT22;55583;53.012;6.556;2023-05-21T12:54:52;32.90;48.90
52743;DHT22;55583;53.012;6.556;2023-05-21T12:59:47;32.60;49.10
52743;DHT22;55583;53.012;6.556;2023-05-21T13:02:19;32.50;49.60
52743;DHT22;55583;53.012;6.556;2023-05-21T13:04:46;32.40;49.00
52743;DHT22;55583;53.012;6.556;2023-05-21T13:07:13;32.30;49.60
52743;DHT22;55583;53.012;6.556;2023-05-21T13:09:39;32.30;49.80
52743;DHT22;55583;53.012;6.556;2023-05-21T13:12:04;32.30;50.00
52743;DHT22;55583;53.012;6.556;2023-05-21T13:14:30;32.30;50.00
52743;DHT22;55583;53.012;6.556;2023-05-21T13:16:56;32.30;50.00
52743;DHT22;55583;53.012;6.556;2023-05-21T13:19:22;32.20;50.10
52743;DHT22;55583;53.012;6.556;2023-05-21T13:21:47;32.10;50.10
52743;DHT22;55583;53.012;6.556;2023-05-21T13:24:13;32.10;50.40
52743;DHT22;55583;53.012;6.556;2023-05-21T13:26:39;32.10;50.40
52743;DHT22;55583;53.012;6.556;2023-05-21T13:29:04;32.00;50.40
52743;DHT22;55583;53.012;6.556;2023-05-21T13:31:30;32.10;50.90
52743;DHT22;55583;53.012;6.556;2023-05-21T13:33:56;31.70;50.50
52743;DHT22;55583;53.012;6.556;2023-05-21T13:36:21;31.50;51.10
52743;DHT22;55583;53.012;6.556;2023-05-21T13:38:47;31.40;51.40
52743;DHT22;55583;53.012;6.556;2023-05-21T13:41:12;31.20;51.60
52743;DHT22;55583;53.012;6.556;2023-05-21T13:43:41;30.80;52.00
52743;DHT22;55583;53.012;6.556;2023-05-21T13:46:07;30.70;52.40
52743;DHT22;55583;53.012;6.556;2023-05-21T13:48:33;30.80;52.50
52743;DHT22;55583;53.012;6.556;2023-05-21T13:50:58;30.90;52.50
52743;DHT22;55583;53.012;6.556;2023-05-21T13:53:24;30.70;52.80
52743;DHT22;55583;53.012;6.556;2023-05-21T13:55:50;30.60;54.00
52743;DHT22;55583;53.012;6.556;2023-05-21T13:58:18;30.60;53.30
52743;DHT22;55583;53.012;6.556;2023-05-21T14:00:44;30.70;53.40
52743;DHT22;55583;53.012;6.556;2023-05-21T14:03:09;30.90;53.50
52743;DHT22;55583;53.012;6.556;2023-05-21T14:05:35;31.20;53.10
52743;DHT22;55583;53.012;6.556;2023-05-21T14:08:02;31.40;52.70
52743;DHT22;55583;53.012;6.556;2023-05-21T14:10:27;31.70;52.40
52743;DHT22;55583;53.012;6.556;2023-05-21T14:12:53;31.70;52.60
52743;DHT22;55583;53.012;6.556;2023-05-21T14:15:19;31.90;52.40
52743;DHT22;55583;53.012;6.556;2023-05-21T14:17:45;32.00;52.50
52743;DHT22;55583;53.012;6.556;2023-05-21T14:20:13;32.00;52.30
52743;DHT22;55583;53.012;6.556;2023-05-21T14:22:39;31.90;52.30
52743;DHT22;55583;53.012;6.556;2023-05-21T14:25:05;31.90;52.40
52743;DHT22;55583;53.012;6.556;2023-05-21T14:27:31;31.90;52.40
52743;DHT22;55583;53.012;6.556;2023-05-21T14:29:56;31.90;52.40
52743;DHT22;55583;53.012;6.556;2023-05-21T14:32:22;31.90;52.70
52743;DHT22;55583;53.012;6.556;2023-05-21T14:34:47;31.90;52.90
52743;DHT22;55583;53.012;6.556;2023-05-21T14:37:13;31.80;52.90
52743;DHT22;55583;53.012;6.556;2023-05-21T14:39:39;31.70;52.90
52743;DHT22;55583;53.012;6.556;2023-05-21T14:42:04;31.60;53.00
52743;DHT22;55583;53.012;6.556;2023-05-21T14:44:30;31.40;53.30
52743;DHT22;55583;53.012;6.556;2023-05-21T14:46:56;31.20;53.70
52743;DHT22;55583;53.012;6.556;2023-05-21T14:49:22;31.00;53.90
52743;DHT22;55583;53.012;6.556;2023-05-21T14:51:47;30.90;54.40
52743;DHT22;55583;53.012;6.556;2023-05-21T14:54:13;30.80;54.70
52743;DHT22;55583;53.012;6.556;2023-05-21T14:56:39;30.80;54.80
52743;DHT22;55583;53.012;6.556;2023-05-21T14:59:04;30.50;54.30
52743;DHT22;55583;53.012;6.556;2023-05-21T15:01:31;30.40;54.50
52743;DHT22;55583;53.012;6.556;2023-05-21T15:03:56;30.40;54.60
52743;DHT22;55583;53.012;6.556;2023-05-21T15:06:23;30.30;54.60
52743;DHT22;55583;53.012;6.556;2023-05-21T15:08:48;30.20;54.70
52743;DHT22;55583;53.012;6.556;2023-05-21T15:11:14;29.90;55.00
52743;DHT22;55583;53.012;6.556;2023-05-21T15:13:40;29.80;55.40
52743;DHT22;55583;53.012;6.556;2023-05-21T15:16:06;29.70;55.60
52743;DHT22;55583;53.012;6.556;2023-05-21T15:18:31;29.60;55.50
52743;DHT22;55583;53.012;6.556;2023-05-21T15:20:57;29.60;55.70
52743;DHT22;55583;53.012;6.556;2023-05-21T15:23:23;29.50;55.90
52743;DHT22;55583;53.012;6.556;2023-05-21T15:25:49;29.40;56.70
52743;DHT22;55583;53.012;6.556;2023-05-21T15:28:15;29.00;56.80
52743;DHT22;55583;53.012;6.556;2023-05-21T15:30:40;28.80;56.80
52743;DHT22;55583;53.012;6.556;2023-05-21T15:33:06;28.60;57.50
52743;DHT22;55583;53.012;6.556;2023-05-21T15:35:34;28.30;58.20
52743;DHT22;55583;53.012;6.556;2023-05-21T15:37:59;28.10;58.40
52743;DHT22;55583;53.012;6.556;2023-05-21T15:40:25;27.80;58.70
52743;DHT22;55583;53.012;6.556;2023-05-21T15:42:51;27.60;59.20
52743;DHT22;55583;53.012;6.556;2023-05-21T15:45:16;27.60;59.50
52743;DHT22;55583;53.012;6.556;2023-05-21T15:47:42;27.30;59.90
52743;DHT22;55583;53.012;6.556;2023-05-21T15:50:08;27.10;60.50
52743;DHT22;55583;53.012;6.556;2023-05-21T15:52:34;27.00;60.70
52743;DHT22;55583;53.012;6.556;2023-05-21T15:55:01;27.00;61.00
52743;DHT22;55583;53.012;6.556;2023-05-21T15:57:26;26.80;61.40
52743;DHT22;55583;53.012;6.556;2023-05-21T15:59:55;26.60;61.60
52743;DHT22;55583;53.012;6.556;2023-05-21T16:02:21;26.50;62.10
52743;DHT22;55583;53.012;6.556;2023-05-21T16:04:46;26.20;62.20
52743;DHT22;55583;53.012;6.556;2023-05-21T16:07:15;26.20;62.60